Time;durP1;ratioP1;P1;durP2;ratioP2;P2;SDS_P1;SDS_P2;PMS_P1;PMS_P2;Temp;Humidity;BMP_temperature;BMP_pressure;BME280_temperature;BME280_humidity;BME280_pressure;Samples;Min_cycle;Max_cycle;Signal;HPM_P1;HPM_P2
2024/02/22 00:00:56;;;;;;;30.65;18.52;;;;;;;;;;5027021;28;20026;-48
2024/02/22 00:03:22;;;;;;;28.10;19.40;;;;;;;;;;5026777;28;20048;-54
2024/02/22 00:05:49;;;;;;;33.85;19.85;;;;;;;;;;5026557;28;20046;-51
2024/02/22 00:08:16;;;;;;;32.35;20.65;;;;;;;;;;5026803;28;20237;-50
2024/02/22 00:10:42;;;;;;;30.67;20.95;;;;;;;;;;5026366;28;20072;-56
2024/02/22 00:13:10;;;;;;;29.30;19.90;;;;;;;;;;5027024;28;20026;-52
2024/02/22 00:15:37;;;;;;;29.95;16.02;;;;;;;;;;5026849;28;20022;-48
2024/02/22 00:18:04;;;;;;;35.25;20.13;;;;;;;;;;5026529;28;20049;-44
2024/02/22 00:20:31;;;;;;;38.08;19.48;;;;;;;;;;5027136;28;20018;-50
2024/02/22 00:22:58;;;;;;;41.85;20.60;;;;;;;;;;5026640;28;20030;-50
2024/02/22 00:25:28;;;;;;;50.53;21.35;;;;;;;;;;5026141;28;20045;-49
2024/02/22 00:27:54;;;;;;;48.75;21.00;;;;;;;;;;5026199;28;20022;-45
2024/02/22 00:30:23;;;;;;;36.92;20.80;;;;;;;;;;5024528;28;20030;-54
2024/02/22 00:32:49;;;;;;;32.45;20.13;;;;;;;;;;5026049;28;20018;-45
2024/02/22 00:35:16;;;;;;;36.95;19.80;;;;;;;;;;5026336;28;20029;-52
2024/02/22 00:37:42;;;;;;;32.13;20.23;;;;;;;;;;5025750;28;20104;-49
2024/02/22 00:40:09;;;;;;;35.10;20.15;;;;;;;;;;5025780;28;20313;-47
2024/02/22 00:42:36;;;;;;;40.80;21.10;;;;;;;;;;5024210;28;20018;-47
2024/02/22 00:45:03;;;;;;;32.85;19.88;;;;;;;;;;5025049;28;20032;-47
2024/02/22 00:47:30;;;;;;;34.05;20.25;;;;;;;;;;5024059;28;20022;-50
2024/02/22 00:49:56;;;;;;;38.30;21.75;;;;;;;;;;5023988;28;20093;-48
2024/02/22 00:52:23;;;;;;;38.35;21.42;;;;;;;;;;5022790;28;20026;-51
2024/02/22 00:54:51;;;;;;;35.78;21.10;;;;;;;;;;5023950;28;20025;-55
2024/02/22 00:57:17;;;;;;;43.13;21.55;;;;;;;;;;5023833;28;20026;-53
2024/02/22 00:59:44;;;;;;;38.35;21.60;;;;;;;;;;5022652;28;20047;-45
2024/02/22 01:02:10;;;;;;;31.25;21.50;;;;;;;;;;5024006;28;20025;-49
2024/02/22 01:04:37;;;;;;;36.67;21.15;;;;;;;;;;5025004;28;20034;-49
2024/02/22 01:07:05;;;;;;;38.50;23.38;;;;;;;;;;5025123;28;20053;-46
2024/02/22 01:09:32;;;;;;;44.47;26.65;;;;;;;;;;5026069;28;20033;-52
2024/02/22 01:11:59;;;;;;;55.88;30.52;;;;;;;;;;5025542;28;20040;-54
2024/02/22 01:14:25;;;;;;;68.78;34.03;;;;;;;;;;5025717;28;20049;-55
2024/02/22 01:16:52;;;;;;;74.55;35.72;;;;;;;;;;5025220;28;20030;-53
2024/02/22 01:19:18;;;;;;;78.13;36.67;;;;;;;;;;5025633;28;20223;-56
2024/02/22 01:21:46;;;;;;;69.72;33.75;;;;;;;;;;5025348;28;20033;-56
2024/02/22 01:24:12;;;;;;;66.15;31.30;;;;;;;;;;5025685;28;20018;-51
2024/02/22 01:26:39;;;;;;;66.40;31.38;;;;;;;;;;5025435;28;20213;-51
2024/02/22 01:29:05;;;;;;;69.68;31.27;;;;;;;;;;5024944;28;20267;-47
2024/02/22 01:31:32;;;;;;;62.85;30.27;;;;;;;;;;5025288;28;20034;-51
2024/02/22 01:33:58;;;;;;;58.40;27.83;;;;;;;;;;5025249;28;20076;-47
2024/02/22 01:36:25;;;;;;;51.63;27.85;;;;;;;;;;5025082;28;20034;-47
2024/02/22 01:38:52;;;;;;;57.20;26.90;;;;;;;;;;5025491;28;20158;-56
2024/02/22 01:41:18;;;;;;;45.80;25.65;;;;;;;;;;5024816;28;20342;-50
2024/02/22 01:43:45;;;;;;;45.22;25.00;;;;;;;;;;5025331;28;20022;-51
2024/02/22 01:46:11;;;;;;;37.15;23.02;;;;;;;;;;5024929;28;20076;-53
2024/02/22 01:48:38;;;;;;;41.08;23.77;;;;;;;;;;5024958;28;20017;-51
2024/02/22 01:51:05;;;;;;;42.88;24.13;;;;;;;;;;5024494;28;20050;-51
2024/02/22 01:53:33;;;;;;;44.05;25.40;;;;;;;;;;5024987;28;20022;-46
2024/02/22 01:56:00;;;;;;;39.13;24.88;;;;;;;;;;5024645;28;20056;-51
2024/02/22 01:58:33;;;;;;;35.88;25.70;;;;;;;;;;5023936;28;20029;-43
2024/02/22 02:01:01;;;;;;;42.75;25.63;;;;;;;;;;5022084;28;20169;-57
2024/02/22 02:03:28;;;;;;;41.00;25.20;;;;;;;;;;5023983;28;20176;-46
2024/02/22 02:05:54;;;;;;;39.95;24.30;;;;;;;;;;5024287;28;20046;-46
2024/02/22 02:08:21;;;;;;;35.88;23.75;;;;;;;;;;5024506;28;20090;-44
2024/02/22 02:10:47;;;;;;;38.28;23.85;;;;;;;;;;5024413;28;20026;-51
2024/02/22 02:13:14;;;;;;;33.33;24.27;;;;;;;;;;5024173;28;20026;-46
2024/02/22 02:15:42;;;;;;;35.25;23.48;;;;;;;;;;5023956;28;20064;-47
2024/02/22 02:18:08;;;;;;;35.70;24.27;;;;;;;;;;5024129;28;20030;-48
2024/02/22 02:20:58;;;;;;;34.40;23.08;;;;;;;;;;5024346;28;20026;-43
2024/02/22 02:23:48;;;;;;;41.90;24.55;;;;;;;;;;5004447;28;20210;-49
2024/02/22 02:26:15;;;;;;;34.17;23.83;;;;;;;;;;5022622;28;20026;-55
2024/02/22 02:28:42;;;;;;;36.05;24.58;;;;;;;;;;5022999;28;20044;-49
2024/02/22 02:31:08;;;;;;;43.33;24.15;;;;;;;;;;5015355;28;20049;-44
2024/02/22 02:33:35;;;;;;;29.83;22.80;;;;;;;;;;5023276;28;20303;-44
2024/02/22 02:36:02;;;;;;;34.38;23.58;;;;;;;;;;5023477;28;20317;-47
2024/02/22 02:38:28;;;;;;;30.85;21.95;;;;;;;;;;5024133;28;20089;-48
2024/02/22 02:40:55;;;;;;;35.00;22.15;;;;;;;;;;5023452;28;20041;-43
2024/02/22 02:43:21;;;;;;;25.55;21.67;;;;;;;;;;5023367;28;20053;-50
2024/02/22 02:45:48;;;;;;;24.45;21.30;;;;;;;;;;5023700;28;20045;-50
2024/02/22 02:48:19;;;;;;;28.33;20.55;;;;;;;;;;5022315;28;20032;-43
2024/02/22 02:50:48;;;;;;;24.60;20.73;;;;;;;;;;5020413;28;20101;-49
2024/02/22 02:53:15;;;;;;;25.02;21.48;;;;;;;;;;5023903;28;20029;-49
2024/02/22 02:55:41;;;;;;;25.42;20.83;;;;;;;;;;5023845;28;20026;-48
2024/02/22 02:58:08;;;;;;;26.35;21.67;;;;;;;;;;5023556;28;20314;-50
2024/02/22 03:00:35;;;;;;;28.83;21.08;;;;;;;;;;5023930;28;20022;-48
2024/02/22 03:03:02;;;;;;;26.23;21.42;;;;;;;;;;5024038;28;20262;-46
2024/02/22 03:05:28;;;;;;;28.00;21.25;;;;;;;;;;5022634;28;20046;-48
2024/02/22 03:07:55;;;;;;;25.30;21.00;;;;;;;;;;5023689;28;20072;-45
2024/02/22 03:10:22;;;;;;;28.92;20.52;;;;;;;;;;5023763;28;20075;-44
2024/02/22 03:12:48;;;;;;;29.70;22.00;;;;;;;;;;5023587;28;20041;-46
2024/02/22 03:15:15;;;;;;;32.42;21.92;;;;;;;;;;5025480;28;20022;-41
2024/02/22 03:17:42;;;;;;;30.02;22.20;;;;;;;;;;5027496;28;20029;-41
2024/02/22 03:20:12;;;;;;;24.48;21.48;;;;;;;;;;5026918;28;20032;-44
2024/02/22 03:22:39;;;;;;;26.35;21.92;;;;;;;;;;5027579;28;20026;-44
2024/02/22 03:25:06;;;;;;;32.80;21.25;;;;;;;;;;5027458;28;20263;-44
2024/02/22 03:27:33;;;;;;;25.42;21.73;;;;;;;;;;5027288;28;20026;-42
2024/02/22 03:30:00;;;;;;;31.13;21.90;;;;;;;;;;5027447;28;20254;-43
2024/02/22 03:32:27;;;;;;;26.00;21.45;;;;;;;;;;5026074;28;20018;-52
2024/02/22 03:34:53;;;;;;;28.80;21.50;;;;;;;;;;5026656;28;20053;-41
2024/02/22 03:37:20;;;;;;;25.27;21.40;;;;;;;;;;5026479;28;20049;-41
2024/02/22 03:39:49;;;;;;;35.22;22.13;;;;;;;;;;5027094;28;20053;-41
2024/02/22 03:42:17;;;;;;;28.45;21.05;;;;;;;;;;5027016;28;20354;-46
2024/02/22 03:44:43;;;;;;;22.17;19.83;;;;;;;;;;5027124;28;20046;-46
2024/02/22 03:47:11;;;;;;;26.83;20.60;;;;;;;;;;5027122;28;20029;-40
2024/02/22 03:49:38;;;;;;;27.67;21.13;;;;;;;;;;5026948;28;20025;-46
2024/02/22 03:52:06;;;;;;;29.05;21.17;;;;;;;;;;5027004;28;20029;-40
2024/02/22 03:54:37;;;;;;;26.00;20.50;;;;;;;;;;5027255;28;20029;-43
2024/02/22 03:57:04;;;;;;;28.08;20.60;;;;;;;;;;5026759;28;20270;-47
2024/02/22 03:59:31;;;;;;;22.27;19.77;;;;;;;;;;5027291;28;20028;-41
2024/02/22 04:01:57;;;;;;;23.00;19.35;;;;;;;;;;5026844;28;20032;-46
2024/02/22 04:04:24;;;;;;;26.63;20.40;;;;;;;;;;5026694;28;20028;-41
2024/02/22 04:06:51;;;;;;;23.65;19.38;;;;;;;;;;5026499;28;20250;-41
2024/02/22 04:09:18;;;;;;;28.23;20.25;;;;;;;;;;5025872;28;20310;-43
2024/02/22 04:11:44;;;;;;;22.75;20.13;;;;;;;;;;5026307;28;20029;-51
2024/02/22 04:14:12;;;;;;;28.08;20.77;;;;;;;;;;5026807;28;20084;-41
2024/02/22 04:16:39;;;;;;;24.08;20.27;;;;;;;;;;5026499;28;20053;-47
2024/02/22 04:19:05;;;;;;;26.15;19.73;;;;;;;;;;5026325;28;20085;-43
2024/02/22 04:21:32;;;;;;;22.20;19.80;;;;;;;;;;5026355;28;20093;-49
2024/02/22 04:23:59;;;;;;;27.02;20.88;;;;;;;;;;5026779;28;20089;-51
2024/02/22 04:26:25;;;;;;;26.60;20.10;;;;;;;;;;5025923;28;20360;-44
2024/02/22 04:28:52;;;;;;;24.95;19.77;;;;;;;;;;5026500;28;20243;-44
2024/02/22 04:31:18;;;;;;;26.48;20.15;;;;;;;;;;5026269;28;20325;-47
2024/02/22 04:33:45;;;;;;;25.88;20.10;;;;;;;;;;5026265;28;20320;-49
2024/02/22 04:36:13;;;;;;;25.98;20.92;;;;;;;;;;5026113;28;20321;-41
2024/02/22 04:38:40;;;;;;;28.60;19.92;;;;;;;;;;5025576;28;20060;-45
2024/02/22 04:41:07;;;;;;;26.63;20.23;;;;;;;;;;5021823;28;20054;-50
2024/02/22 04:43:34;;;;;;;21.67;19.38;;;;;;;;;;5026228;28;20206;-46
2024/02/22 04:46:00;;;;;;;23.42;19.83;;;;;;;;;;5026244;28;20309;-48
2024/02/22 04:48:27;;;;;;;24.15;19.77;;;;;;;;;;5025962;28;20298;-50
2024/02/22 04:50:53;;;;;;;21.45;18.77;;;;;;;;;;5025736;28;20026;-50
2024/02/22 04:53:20;;;;;;;23.63;18.77;;;;;;;;;;5025985;28;20021;-42
2024/02/22 04:55:47;;;;;;;22.40;18.75;;;;;;;;;;5025303;28;20041;-45
2024/02/22 04:58:13;;;;;;;25.13;18.75;;;;;;;;;;5025106;28;20249;-48
2024/02/22 05:00:40;;;;;;;21.30;17.42;;;;;;;;;;5012898;28;20361;-43
2024/02/22 05:03:07;;;;;;;24.95;18.80;;;;;;;;;;5025891;28;20202;-48
2024/02/22 05:05:34;;;;;;;22.45;18.48;;;;;;;;;;5025369;28;20042;-51
2024/02/22 05:08:01;;;;;;;19.60;17.48;;;;;;;;;;5025557;28;20084;-47
2024/02/22 05:10:29;;;;;;;22.35;17.90;;;;;;;;;;5025393;28;20029;-44
2024/02/22 05:12:56;;;;;;;19.40;17.45;;;;;;;;;;5025364;28;20052;-41
2024/02/22 05:15:23;;;;;;;21.25;18.35;;;;;;;;;;5025501;28;20041;-48
2024/02/22 05:17:49;;;;;;;19.17;17.25;;;;;;;;;;5025392;28;20025;-42
2024/02/22 05:20:16;;;;;;;23.10;17.98;;;;;;;;;;5025044;28;20025;-40
2024/02/22 05:22:43;;;;;;;21.15;18.08;;;;;;;;;;5025304;28;20018;-44
2024/02/22 05:25:09;;;;;;;20.63;17.02;;;;;;;;;;5025063;28;20033;-41
2024/02/22 05:27:36;;;;;;;23.27;18.15;;;;;;;;;;5024993;28;20302;-40
2024/02/22 05:30:03;;;;;;;21.38;17.00;;;;;;;;;;5025200;28;20222;-41
2024/02/22 05:32:30;;;;;;;19.42;17.38;;;;;;;;;;5024938;28;20026;-45
2024/02/22 05:34:57;;;;;;;19.80;17.02;;;;;;;;;;5024815;28;20025;-40
2024/02/22 05:37:24;;;;;;;19.08;17.17;;;;;;;;;;5024240;28;20029;-43
2024/02/22 05:39:50;;;;;;;21.20;17.45;;;;;;;;;;5024881;28;20064;-46
2024/02/22 05:42:17;;;;;;;19.77;17.52;;;;;;;;;;5024614;28;20018;-40
2024/02/22 05:44:44;;;;;;;20.10;17.70;;;;;;;;;;5024700;28;20348;-42
2024/02/22 05:47:10;;;;;;;24.73;17.67;;;;;;;;;;5024837;28;20025;-42
2024/02/22 05:49:38;;;;;;;23.52;18.55;;;;;;;;;;5025099;28;20085;-41
2024/02/22 05:52:04;;;;;;;24.02;17.88;;;;;;;;;;5024667;28;20029;-43
2024/02/22 05:54:31;;;;;;;19.83;17.70;;;;;;;;;;5025245;28;20033;-41
2024/02/22 05:56:57;;;;;;;21.90;17.70;;;;;;;;;;5024529;28;20025;-50
2024/02/22 05:59:24;;;;;;;20.55;17.20;;;;;;;;;;5024950;28;20021;-41
2024/02/22 06:01:51;;;;;;;21.73;17.65;;;;;;;;;;5024568;28;20322;-42
2024/02/22 06:04:18;;;;;;;22.20;17.83;;;;;;;;;;5024758;28;20187;-44
2024/02/22 06:06:44;;;;;;;20.90;18.10;;;;;;;;;;5024216;28;20089;-42
2024/02/22 06:09:11;;;;;;;19.58;17.50;;;;;;;;;;5024840;28;20036;-42
2024/02/22 06:11:38;;;;;;;20.63;17.65;;;;;;;;;;5024480;28;20026;-52
2024/02/22 06:14:04;;;;;;;20.83;17.45;;;;;;;;;;5024315;28;20037;-43
2024/02/22 06:16:31;;;;;;;20.92;17.67;;;;;;;;;;5024308;28;20041;-41
2024/02/22 06:18:58;;;;;;;20.52;17.73;;;;;;;;;;5024430;28;20033;-41
2024/02/22 06:21:25;;;;;;;19.75;17.63;;;;;;;;;;5024449;28;20020;-41
2024/02/22 06:23:52;;;;;;;23.52;18.65;;;;;;;;;;5024461;28;20026;-44
2024/02/22 06:26:18;;;;;;;19.20;17.23;;;;;;;;;;5024063;28;20041;-42
2024/02/22 06:28:45;;;;;;;19.40;17.38;;;;;;;;;;5024441;28;20117;-41
2024/02/22 06:31:11;;;;;;;21.63;18.50;;;;;;;;;;5024173;28;20037;-41
2024/02/22 06:33:39;;;;;;;21.13;16.85;;;;;;;;;;5024402;28;20052;-47
2024/02/22 06:36:06;;;;;;;19.42;17.40;;;;;;;;;;5024008;28;20030;-40
2024/02/22 06:38:33;;;;;;;20.58;17.48;;;;;;;;;;5024318;28;20033;-42
2024/02/22 06:41:00;;;;;;;21.05;18.10;;;;;;;;;;5024079;28;20041;-42
2024/02/22 06:43:26;;;;;;;25.77;18.40;;;;;;;;;;5024228;28;20402;-41
2024/02/22 06:45:53;;;;;;;19.33;17.05;;;;;;;;;;5024061;28;20089;-45
2024/02/22 06:48:20;;;;;;;20.08;17.65;;;;;;;;;;5024366;28;20018;-41
2024/02/22 06:50:46;;;;;;;21.45;16.90;;;;;;;;;;5028101;28;20329;-50
2024/02/22 06:53:13;;;;;;;20.45;18.02;;;;;;;;;;5028303;28;20030;-47
2024/02/22 06:55:40;;;;;;;20.33;18.23;;;;;;;;;;5027924;28;20072;-43
2024/02/22 06:58:06;;;;;;;19.98;17.88;;;;;;;;;;5027682;28;20041;-41
2024/02/22 07:00:33;;;;;;;20.17;18.08;;;;;;;;;;5028067;28;20066;-44
2024/02/22 07:03:00;;;;;;;19.52;17.33;;;;;;;;;;5027878;28;20026;-39
2024/02/22 07:05:26;;;;;;;20.27;18.08;;;;;;;;;;5027569;28;20041;-41
2024/02/22 07:07:53;;;;;;;20.35;16.95;;;;;;;;;;5027828;28;20041;-43
2024/02/22 07:10:21;;;;;;;21.08;16.77;;;;;;;;;;5027665;28;20022;-40
2024/02/22 07:12:48;;;;;;;19.58;16.75;;;;;;;;;;5027509;28;20026;-48
2024/02/22 07:15:16;;;;;;;20.35;16.88;;;;;;;;;;5027706;28;20055;-52
2024/02/22 07:17:43;;;;;;;21.42;17.60;;;;;;;;;;5027521;28;20084;-48
2024/02/22 07:20:10;;;;;;;21.00;16.75;;;;;;;;;;5027654;28;20203;-50
2024/02/22 07:22:39;;;;;;;22.13;16.70;;;;;;;;;;5027584;28;20017;-52
2024/02/22 07:25:06;;;;;;;25.70;17.20;;;;;;;;;;5027375;28;20026;-52
2024/02/22 07:27:33;;;;;;;18.98;16.92;;;;;;;;;;5027313;28;20029;-49
2024/02/22 07:29:59;;;;;;;20.70;17.33;;;;;;;;;;5027292;28;20322;-44
2024/02/22 07:32:26;;;;;;;23.27;17.45;;;;;;;;;;5027481;28;20366;-52
2024/02/22 07:34:52;;;;;;;21.77;17.35;;;;;;;;;;5027093;28;20030;-48
2024/02/22 07:37:19;;;;;;;20.13;16.83;;;;;;;;;;5027407;28;20089;-52
2024/02/22 07:39:46;;;;;;;18.35;16.45;;;;;;;;;;5027276;28;20034;-51
2024/02/22 07:42:12;;;;;;;21.98;16.60;;;;;;;;;;5027191;28;20044;-47
2024/02/22 07:44:43;;;;;;;19.73;16.52;;;;;;;;;;5027340;28;20030;-54
2024/02/22 07:47:11;;;;;;;18.48;15.82;;;;;;;;;;5027235;28;20025;-47
2024/02/22 07:49:38;;;;;;;19.23;15.43;;;;;;;;;;5027424;28;20247;-51
2024/02/22 07:52:06;;;;;;;18.38;15.90;;;;;;;;;;5027066;28;20030;-44
2024/02/22 07:54:32;;;;;;;17.65;15.93;;;;;;;;;;5027272;28;20080;-46
2024/02/22 07:56:59;;;;;;;21.90;16.33;;;;;;;;;;5026978;28;20030;-44
2024/02/22 07:59:26;;;;;;;21.08;16.38;;;;;;;;;;5027127;28;20033;-48
2024/02/22 08:01:52;;;;;;;18.08;16.13;;;;;;;;;;5026013;28;20025;-43
2024/02/22 08:04:19;;;;;;;19.75;16.33;;;;;;;;;;5027054;28;20021;-45
2024/02/22 08:06:46;;;;;;;17.95;15.98;;;;;;;;;;5026396;28;20060;-46
2024/02/22 08:09:12;;;;;;;20.70;16.92;;;;;;;;;;5027049;28;20029;-42
2024/02/22 08:11:39;;;;;;;19.45;16.60;;;;;;;;;;5026505;28;20329;-51
2024/02/22 08:14:06;;;;;;;20.15;16.83;;;;;;;;;;5027015;28;20209;-44
2024/02/22 08:16:32;;;;;;;22.02;16.35;;;;;;;;;;5026611;28;20026;-44
2024/02/22 08:18:59;;;;;;;20.08;16.88;;;;;;;;;;5026570;28;20028;-49
2024/02/22 08:21:25;;;;;;;19.70;16.13;;;;;;;;;;5026512;28;20029;-51
2024/02/22 08:23:55;;;;;;;19.70;15.93;;;;;;;;;;5026787;28;20029;-41
2024/02/22 08:26:22;;;;;;;18.90;15.85;;;;;;;;;;5026232;28;20022;-47
2024/02/22 08:28:49;;;;;;;18.65;16.65;;;;;;;;;;5026201;28;20080;-49
2024/02/22 08:31:16;;;;;;;18.90;15.88;;;;;;;;;;5026322;28;20210;-43
2024/02/22 08:33:43;;;;;;;20.10;16.70;;;;;;;;;;5026258;28;20029;-46
2024/02/22 08:36:09;;;;;;;20.67;16.27;;;;;;;;;;5026255;28;20030;-39
2024/02/22 08:38:36;;;;;;;18.38;16.48;;;;;;;;;;5026284;28;20049;-44
2024/02/22 08:41:04;;;;;;;17.55;15.75;;;;;;;;;;5025867;28;20070;-47
2024/02/22 08:43:31;;;;;;;17.60;15.73;;;;;;;;;;5026353;28;20049;-51
2024/02/22 08:46:01;;;;;;;18.50;15.70;;;;;;;;;;5025851;28;20029;-44
2024/02/22 08:48:27;;;;;;;17.42;15.63;;;;;;;;;;5026068;28;20118;-45
2024/02/22 08:50:57;;;;;;;17.73;15.93;;;;;;;;;;5025807;28;20033;-46
2024/02/22 08:53:24;;;;;;;17.83;15.95;;;;;;;;;;5025920;28;20215;-49
2024/02/22 08:55:50;;;;;;;17.50;15.70;;;;;;;;;;5025554;28;20053;-50
2024/02/22 08:58:17;;;;;;;18.73;16.42;;;;;;;;;;5025985;28;20310;-41
2024/02/22 09:00:44;;;;;;;18.15;15.55;;;;;;;;;;5025708;28;20033;-47
2024/02/22 09:03:10;;;;;;;20.48;16.05;;;;;;;;;;5025595;28;20382;-41
2024/02/22 09:05:37;;;;;;;18.05;16.00;;;;;;;;;;5025443;28;20072;-44
2024/02/22 09:08:04;;;;;;;17.88;15.98;;;;;;;;;;5025772;28;20021;-49
2024/02/22 09:10:31;;;;;;;18.90;15.70;;;;;;;;;;5025246;28;20096;-44
2024/02/22 09:12:57;;;;;;;20.52;15.93;;;;;;;;;;5024378;28;20041;-42
2024/02/22 09:15:24;;;;;;;18.15;16.08;;;;;;;;;;5025428;28;20030;-43
2024/02/22 09:17:50;;;;;;;20.55;16.42;;;;;;;;;;5025388;28;20138;-49
2024/02/22 09:20:18;;;;;;;18.80;16.42;;;;;;;;;;5025543;28;20230;-42
2024/02/22 09:22:44;;;;;;;18.85;16.83;;;;;;;;;;5025194;28;20026;-42
2024/02/22 09:25:11;;;;;;;20.52;16.73;;;;;;;;;;5025203;28;20225;-47
2024/02/22 09:27:38;;;;;;;22.50;17.08;;;;;;;;;;5024954;28;20018;-43
2024/02/22 09:30:04;;;;;;;19.83;16.65;;;;;;;;;;5025224;28;20026;-44
2024/02/22 09:32:31;;;;;;;18.73;16.90;;;;;;;;;;5025113;28;20072;-43
2024/02/22 09:34:58;;;;;;;18.33;16.30;;;;;;;;;;5024967;28;20368;-44
2024/02/22 09:37:27;;;;;;;19.20;16.60;;;;;;;;;;5025017;28;20072;-47
2024/02/22 09:39:53;;;;;;;22.17;16.73;;;;;;;;;;5024906;28;20218;-41
2024/02/22 09:42:25;;;;;;;21.95;16.80;;;;;;;;;;5024804;28;20210;-45
2024/02/22 09:44:52;;;;;;;21.50;17.27;;;;;;;;;;5025092;28;20026;-44
2024/02/22 09:47:18;;;;;;;20.02;17.38;;;;;;;;;;5024829;28;20033;-43
2024/02/22 09:49:45;;;;;;;18.75;16.77;;;;;;;;;;5024645;28;20044;-44
2024/02/22 09:52:19;;;;;;;21.50;17.52;;;;;;;;;;5024793;28;20025;-41
2024/02/22 09:54:45;;;;;;;18.63;16.42;;;;;;;;;;5024480;28;20025;-48
2024/02/22 09:57:12;;;;;;;18.88;16.63;;;;;;;;;;5024680;28;20041;-40
2024/02/22 09:59:39;;;;;;;19.95;16.58;;;;;;;;;;5024821;28;20112;-43
2024/02/22 10:02:06;;;;;;;18.50;16.60;;;;;;;;;;5024382;28;20210;-42
2024/02/22 10:04:34;;;;;;;21.42;17.67;;;;;;;;;;5024889;28;20258;-50
2024/02/22 10:07:03;;;;;;;18.83;16.83;;;;;;;;;;5024441;28;20049;-45
2024/02/22 10:09:31;;;;;;;20.85;17.13;;;;;;;;;;5024777;28;20037;-41
2024/02/22 10:12:00;;;;;;;23.05;17.95;;;;;;;;;;5024310;28;20029;-49
2024/02/22 10:14:28;;;;;;;20.83;17.77;;;;;;;;;;5024244;28;20036;-41
2024/02/22 10:16:54;;;;;;;20.02;17.02;;;;;;;;;;5024347;28;20030;-41
2024/02/22 10:19:21;;;;;;;22.02;18.10;;;;;;;;;;5024664;28;20198;-41
2024/02/22 10:21:48;;;;;;;19.80;17.20;;;;;;;;;;5024196;28;20057;-51
2024/02/22 10:24:14;;;;;;;22.45;17.73;;;;;;;;;;5024170;28;20018;-41
2024/02/22 10:26:41;;;;;;;20.75;17.85;;;;;;;;;;5024507;28;20037;-46
2024/02/22 10:29:12;;;;;;;21.75;18.23;;;;;;;;;;5024789;28;20126;-44
2024/02/22 10:31:45;;;;;;;20.48;17.98;;;;;;;;;;5024056;28;20052;-46
2024/02/22 10:34:13;;;;;;;20.98;18.02;;;;;;;;;;5024450;28;20298;-47
2024/02/22 10:36:43;;;;;;;23.48;17.73;;;;;;;;;;5023997;28;20230;-49
2024/02/22 10:39:11;;;;;;;22.92;18.08;;;;;;;;;;5024184;28;20033;-51
2024/02/22 10:41:37;;;;;;;19.75;17.70;;;;;;;;;;5024045;28;20022;-45
2024/02/22 10:44:05;;;;;;;22.75;18.67;;;;;;;;;;5024356;28;20025;-44
2024/02/22 10:46:34;;;;;;;20.60;17.88;;;;;;;;;;5023960;28;20029;-51
2024/02/22 10:49:01;;;;;;;23.05;17.67;;;;;;;;;;5024362;28;20026;-45
2024/02/22 10:51:29;;;;;;;19.35;17.30;;;;;;;;;;5023912;28;20029;-45
2024/02/22 10:53:56;;;;;;;29.60;19.58;;;;;;;;;;5024071;28;20044;-45
2024/02/22 10:56:24;;;;;;;22.48;17.90;;;;;;;;;;5023962;28;20029;-49
2024/02/22 10:58:58;;;;;;;27.95;18.55;;;;;;;;;;5023684;28;20077;-41
2024/02/22 11:01:26;;;;;;;23.17;17.88;;;;;;;;;;5023938;28;20226;-43
2024/02/22 11:03:53;;;;;;;29.77;19.27;;;;;;;;;;5024076;28;20025;-43
2024/02/22 11:06:21;;;;;;;31.60;18.42;;;;;;;;;;5023420;28;20058;-46
2024/02/22 11:08:51;;;;;;;36.70;18.88;;;;;;;;;;5024100;28;20093;-43
2024/02/22 11:11:27;;;;;;;33.17;18.13;;;;;;;;;;5023758;28;20030;-42
2024/02/22 11:13:59;;;;;;;29.42;19.38;;;;;;;;;;5024224;28;20088;-43
2024/02/22 11:16:33;;;;;;;32.88;20.05;;;;;;;;;;5023767;28;20030;-46
2024/02/22 11:19:10;;;;;;;29.55;19.55;;;;;;;;;;5023584;28;20072;-43
2024/02/22 11:21:39;;;;;;;25.73;19.30;;;;;;;;;;5023579;28;20037;-41
2024/02/22 11:24:07;;;;;;;29.05;20.10;;;;;;;;;;5024101;28;20021;-40
2024/02/22 11:26:34;;;;;;;31.88;22.50;;;;;;;;;;5023521;28;20022;-42
2024/02/22 11:29:01;;;;;;;25.48;19.77;;;;;;;;;;5023832;28;20085;-40
2024/02/22 11:31:27;;;;;;;41.20;24.67;;;;;;;;;;5023610;28;20058;-46
2024/02/22 11:33:56;;;;;;;41.03;20.85;;;;;;;;;;5023766;28;20033;-41
2024/02/22 11:36:24;;;;;;;40.60;23.05;;;;;;;;;;5025199;28;20030;-42
2024/02/22 11:38:58;;;;;;;45.00;22.85;;;;;;;;;;5027308;28;20287;-53
2024/02/22 11:41:25;;;;;;;49.80;23.90;;;;;;;;;;5026747;28;20125;-48
2024/02/22 11:44:01;;;;;;;39.33;23.33;;;;;;;;;;5025326;28;20046;-50
2024/02/22 11:46:27;;;;;;;37.53;22.67;;;;;;;;;;5025114;28;20028;-51
2024/02/22 11:48:54;;;;;;;43.83;23.77;;;;;;;;;;5025540;28;20022;-50
2024/02/22 11:51:23;;;;;;;41.17;23.48;;;;;;;;;;5025373;28;20214;-55
2024/02/22 11:53:53;;;;;;;42.92;22.52;;;;;;;;;;5025431;28;20045;-50
2024/02/22 11:56:20;;;;;;;53.17;22.73;;;;;;;;;;5025132;28;20258;-51
2024/02/22 11:58:47;;;;;;;73.70;25.65;;;;;;;;;;5025531;28;20045;-47
2024/02/22 12:01:14;;;;;;;91.13;26.02;;;;;;;;;;5025132;28;20025;-54
2024/02/22 12:03:41;;;;;;;98.65;27.10;;;;;;;;;;5025516;28;20018;-50
2024/02/22 12:06:07;;;;;;;103.03;28.45;;;;;;;;;;5025013;28;20042;-45
2024/02/22 12:08:35;;;;;;;99.25;27.95;;;;;;;;;;5025674;28;20029;-48
2024/02/22 12:11:02;;;;;;;90.05;26.73;;;;;;;;;;5026761;28;20029;-51
2024/02/22 12:13:28;;;;;;;97.50;27.83;;;;;;;;;;5026733;28;20022;-54
2024/02/22 12:16:07;;;;;;;76.78;25.75;;;;;;;;;;5026366;28;20060;-50
2024/02/22 12:18:35;;;;;;;81.18;23.92;;;;;;;;;;5026892;28;20030;-51
2024/02/22 12:21:02;;;;;;;61.00;22.60;;;;;;;;;;5026337;28;20022;-48
2024/02/22 12:23:30;;;;;;;46.83;22.40;;;;;;;;;;5027008;28;20310;-50
2024/02/22 12:26:06;;;;;;;64.93;23.10;;;;;;;;;;5026369;28;20032;-47
2024/02/22 12:28:39;;;;;;;76.45;23.88;;;;;;;;;;5026416;28;20029;-51
2024/02/22 12:31:07;;;;;;;94.40;25.00;;;;;;;;;;5026275;28;20217;-48
2024/02/22 12:33:34;;;;;;;58.03;23.42;;;;;;;;;;5026429;28;20030;-48
2024/02/22 12:36:04;;;;;;;47.67;21.55;;;;;;;;;;5025902;28;20049;-45
2024/02/22 12:38:30;;;;;;;50.10;21.23;;;;;;;;;;5026298;28;20076;-47
2024/02/22 12:40:57;;;;;;;43.20;20.92;;;;;;;;;;5026132;28;20018;-43
2024/02/22 12:43:23;;;;;;;37.70;21.42;;;;;;;;;;5025630;28;20113;-51
2024/02/22 12:45:50;;;;;;;40.08;20.95;;;;;;;;;;5025641;28;20141;-39
2024/02/22 12:48:17;;;;;;;31.45;20.27;;;;;;;;;;5025749;28;20028;-47
2024/02/22 12:50:44;;;;;;;32.95;20.80;;;;;;;;;;5025741;28;20049;-46
2024/02/22 12:53:11;;;;;;;33.67;20.13;;;;;;;;;;5026026;28;20060;-47
2024/02/22 12:55:38;;;;;;;25.80;19.33;;;;;;;;;;5025609;28;20033;-41
2024/02/22 12:58:05;;;;;;;26.13;19.30;;;;;;;;;;5025896;28;20052;-51
2024/02/22 13:00:36;;;;;;;28.73;19.67;;;;;;;;;;5025690;28;20022;-51
2024/02/22 13:03:02;;;;;;;26.83;19.13;;;;;;;;;;5025809;28;20018;-45
2024/02/22 13:05:30;;;;;;;36.13;19.90;;;;;;;;;;5025476;28;20113;-48
2024/02/22 13:07:58;;;;;;;36.45;20.60;;;;;;;;;;5025636;28;20049;-49
2024/02/22 13:10:26;;;;;;;42.75;20.10;;;;;;;;;;5025401;28;20080;-57
2024/02/22 13:12:53;;;;;;;46.35;21.80;;;;;;;;;;5025903;28;20388;-51
2024/02/22 13:15:19;;;;;;;41.70;20.23;;;;;;;;;;5025853;28;20034;-47
2024/02/22 13:17:46;;;;;;;43.85;21.05;;;;;;;;;;5025487;28;20025;-49
2024/02/22 13:20:12;;;;;;;60.70;21.05;;;;;;;;;;5025336;28;20033;-51
2024/02/22 13:22:40;;;;;;;37.33;20.77;;;;;;;;;;5025370;28;20029;-46
2024/02/22 13:25:07;;;;;;;39.15;20.27;;;;;;;;;;5025374;28;20034;-45
2024/02/22 13:27:35;;;;;;;38.78;20.08;;;;;;;;;;5021332;28;20156;-48
2024/02/22 13:30:02;;;;;;;41.45;19.60;;;;;;;;;;5025205;28;20033;-49
2024/02/22 13:32:29;;;;;;;33.30;20.85;;;;;;;;;;5018580;28;20084;-51
2024/02/22 13:34:57;;;;;;;41.58;21.88;;;;;;;;;;5024989;28;20022;-46
2024/02/22 13:37:23;;;;;;;45.03;21.10;;;;;;;;;;5025013;28;20053;-44
2024/02/22 13:39:50;;;;;;;43.08;21.80;;;;;;;;;;5024939;28;20022;-50
2024/02/22 13:42:17;;;;;;;39.97;21.17;;;;;;;;;;5024670;28;20085;-43
2024/02/22 13:44:44;;;;;;;38.78;20.75;;;;;;;;;;5024810;28;20026;-46
2024/02/22 13:47:10;;;;;;;38.53;20.10;;;;;;;;;;5024430;28;20018;-52
2024/02/22 13:49:37;;;;;;;27.55;19.38;;;;;;;;;;5025161;28;20029;-47
2024/02/22 13:52:04;;;;;;;35.83;20.85;;;;;;;;;;5024786;28;20049;-45
2024/02/22 13:54:30;;;;;;;48.63;24.00;;;;;;;;;;5025591;28;20033;-43
2024/02/22 13:56:58;;;;;;;72.28;35.92;;;;;;;;;;5024851;28;20026;-51
2024/02/22 13:59:25;;;;;;;59.10;33.10;;;;;;;;;;5024512;28;20325;-41
2024/02/22 14:01:51;;;;;;;46.70;27.92;;;;;;;;;;5024030;28;20049;-44
2024/02/22 14:04:18;;;;;;;56.72;27.05;;;;;;;;;;5024794;28;20032;-42
2024/02/22 14:06:44;;;;;;;58.75;28.45;;;;;;;;;;5024391;28;20353;-43
2024/02/22 14:09:11;;;;;;;46.13;29.33;;;;;;;;;;5024927;28;20037;-43
2024/02/22 14:11:37;;;;;;;45.17;27.48;;;;;;;;;;5024351;28;20022;-44
2024/02/22 14:14:05;;;;;;;39.22;26.10;;;;;;;;;;5024358;28;20318;-42
2024/02/22 14:16:31;;;;;;;42.65;25.20;;;;;;;;;;5024645;28;20030;-44